Time;durP1;ratioP1;P1;durP2;ratioP2;P2;SDS_P1;SDS_P2;PMS_P1;PMS_P2;Temp;Humidity;BMP_temperature;BMP_pressure;BME280_temperature;BME280_humidity;BME280_pressure;Samples;Min_cycle;Max_cycle;Signal;HPM_P1;HPM_P2
2021/09/14 00:19:31;;;;;;;;;;;;;;;;;;;;;
2021/09/14 00:25:25;;;;;;;260.53;246.90;;;11.70;99.90;;;;;;6168240;23;20492;-92
2021/09/14 00:35:02;;;;;;;270.10;256.17;;;11.90;99.90;;;;;;6122678;23;20765;-91
2021/09/14 00:41:01;;;;;;;;;;;;;;;;;;;;;
2021/09/14 00:54:14;;;;;;;286.33;272.00;;;11.80;99.90;;;;;;6222116;23;20520;-91
2021/09/14 00:57:38;;;;;;;;;;;;;;;;;;;;;
2021/09/14 01:00:59;;;;;;;276.67;262.63;;;11.70;99.90;;;;;;6095818;23;20415;-91
2021/09/14 01:03:43;;;;;;;277.33;262.47;;;11.70;99.90;;;;;;6226896;23;20422;-91
2021/09/14 01:06:25;;;;;;;;;;;;;;;;;;;;;
2021/09/14 01:09:26;;;;;;;;;;;;;;;;;;;;;
2021/09/14 01:12:41;;;;;;;280.13;266.07;;;11.50;99.90;;;;;;6227285;23;20939;-94
2021/09/14 01:15:42;;;;;;;268.27;253.97;;;11.30;99.90;;;;;;6115921;23;20426;-94
2021/09/14 01:19:13;;;;;;;;;;;;;;;;;;;;;
2021/09/14 01:22:17;;;;;;;284.53;269.03;;;11.30;99.90;;;;;;6179162;23;20440;-93
2021/09/14 01:25:10;;;;;;;300.60;284.47;;;11.40;99.90;;;;;;6226437;23;20450;-93
2021/09/14 01:27:37;;;;;;;294.27;278.40;;;11.50;99.90;;;;;;6227295;23;20400;-94
2021/09/14 01:36:53;;;;;;;301.47;285.53;;;11.50;99.90;;;;;;6213574;23;20448;-92
2021/09/14 01:39:29;;;;;;;300.20;284.00;;;11.60;99.90;;;;;;6103501;23;20474;-93
2021/09/14 01:42:05;;;;;;;298.70;281.43;;;11.50;99.90;;;;;;6104819;23;20502;-94
2021/09/14 01:45:06;;;;;;;307.53;289.83;;;11.40;99.90;;;;;;6206362;23;20969;-90
2021/09/14 01:48:12;;;;;;;314.57;297.10;;;11.20;99.90;;;;;;6226360;23;20424;-91
2021/09/14 01:50:59;;;;;;;327.17;309.03;;;11.20;99.90;;;;;;6052524;23;20419;-91
2021/09/14 01:54:22;;;;;;;330.73;312.43;;;11.30;99.90;;;;;;6066015;23;20440;-92
2021/09/14 01:57:32;;;;;;;329.97;311.97;;;11.40;99.90;;;;;;5953204;24;20432;-92
2021/09/14 02:00:53;;;;;;;339.97;321.27;;;11.50;99.90;;;;;;6095428;23;20923;-91
2021/09/14 02:56:40;;;;;;;339.53;320.60;;;11.00;99.90;;;;;;6198975;23;20400;-95
2021/09/14 02:59:25;;;;;;;338.53;319.43;;;11.00;99.90;;;;;;6202442;23;20409;-94
2021/09/14 03:02:35;;;;;;;;;;;;;;;;;;;;;
2021/09/14 03:05:28;;;;;;;345.23;326.67;;;11.10;99.90;;;;;;6207609;23;20393;-95
2021/09/14 03:08:05;;;;;;;340.47;320.37;;;11.00;99.90;;;;;;6206391;23;20412;-95
2021/09/14 03:10:45;;;;;;;345.17;325.40;;;11.00;99.90;;;;;;6200492;23;20755;-94
2021/09/14 03:13:33;;;;;;;342.97;323.97;;;10.90;99.90;;;;;;6201954;23;20449;-95
2021/09/14 03:16:13;;;;;;;350.10;331.57;;;11.00;99.90;;;;;;6202443;23;20413;-95
2021/09/14 03:18:51;;;;;;;347.77;328.57;;;11.00;99.90;;;;;;6194238;23;20400;-94
2021/09/14 03:21:43;;;;;;;346.83;327.77;;;11.00;99.90;;;;;;6206317;23;20437;-93
2021/09/14 03:24:20;;;;;;;347.70;328.13;;;10.90;99.90;;;;;;6204038;23;20496;-93
2021/09/14 03:26:59;;;;;;;362.37;341.60;;;10.90;99.90;;;;;;6201212;23;20416;-94
2021/09/14 03:29:36;;;;;;;351.43;332.07;;;10.90;99.90;;;;;;6199998;23;20412;-94
2021/09/14 03:32:38;;;;;;;;;;;;;;;;;;;;;
2021/09/14 03:35:15;;;;;;;343.37;324.53;;;11.00;99.90;;;;;;6163832;23;20412;-94
2021/09/14 03:38:31;;;;;;;351.57;331.57;;;11.00;99.90;;;;;;6199870;23;20413;-94
2021/09/14 03:44:22;;;;;;;359.90;339.23;;;11.00;99.90;;;;;;6183601;23;20416;-95
2021/09/14 03:47:06;;;;;;;364.30;343.60;;;11.00;99.90;;;;;;6200326;23;20416;-91
2021/09/14 03:56:51;;;;;;;375.83;354.77;;;11.00;99.90;;;;;;6085270;23;20420;-94
2021/09/14 04:02:46;;;;;;;372.40;350.47;;;11.00;99.90;;;;;;6131341;23;20932;-92
2021/09/14 04:12:49;;;;;;;381.13;357.87;;;11.20;99.90;;;;;;6173222;23;20417;-93
2021/09/14 04:22:31;;;;;;;372.87;351.53;;;11.10;99.90;;;;;;6025920;23;20493;-94
2021/09/14 04:28:44;;;;;;;;;;;;;;;;;;;;;
2021/09/14 04:38:06;;;;;;;364.20;342.70;;;11.00;99.90;;;;;;5927999;24;21009;-93
2021/09/14 04:41:11;;;;;;;362.40;342.00;;;10.90;99.90;;;;;;6083872;23;20475;-91
2021/09/14 04:53:32;;;;;;;359.77;338.73;;;10.60;99.90;;;;;;5928591;24;20483;-89
2021/09/14 04:56:03;;;;;;;370.80;348.87;;;10.70;99.90;;;;;;6011883;23;20478;-93
2021/09/14 04:58:39;;;;;;;363.00;341.83;;;10.70;99.90;;;;;;6095525;23;20470;-89
2021/09/14 05:19:40;;;;;;;370.23;348.30;;;11.50;99.90;;;;;;6235509;23;20431;-90
2021/09/14 05:25:46;;;;;;;367.37;345.07;;;11.60;99.90;;;;;;6210276;23;20900;-92
2021/09/14 05:28:35;;;;;;;367.43;345.67;;;11.60;99.90;;;;;;6237606;23;20404;-91
2021/09/14 05:31:44;;;;;;;374.57;352.80;;;11.70;99.90;;;;;;6230632;23;20427;-94
2021/09/14 05:38:01;;;;;;;;;;;;;;;;;;;;;
2021/09/14 05:43:50;;;;;;;371.07;348.47;;;12.10;99.90;;;;;;6225300;23;20444;-90
2021/09/14 05:49:27;;;;;;;374.20;351.67;;;12.20;99.90;;;;;;6219426;23;20832;-90
2021/09/14 05:52:14;;;;;;;369.27;346.87;;;12.30;99.90;;;;;;6217037;23;20511;-88
2021/09/14 05:54:46;;;;;;;365.27;344.10;;;12.40;99.90;;;;;;6225433;23;20930;-90
2021/09/14 05:57:15;;;;;;;364.57;342.50;;;12.60;99.90;;;;;;6216320;23;20406;-90
2021/09/14 05:59:42;;;;;;;364.57;343.40;;;12.60;99.90;;;;;;6227074;23;20412;-90
2021/09/14 06:02:09;;;;;;;361.57;340.20;;;12.70;99.90;;;;;;6226099;23;20862;-89
2021/09/14 06:04:36;;;;;;;366.57;345.57;;;12.90;99.90;;;;;;6226689;23;20766;-88
2021/09/14 06:07:20;;;;;;;355.67;334.87;;;13.10;99.90;;;;;;6226570;23;20491;-89
2021/09/14 06:09:48;;;;;;;351.43;331.63;;;13.20;99.90;;;;;;6215324;23;20396;-89
2021/09/14 06:12:15;;;;;;;333.83;314.50;;;13.30;99.90;;;;;;6226493;23;20401;-90
2021/09/14 06:14:42;;;;;;;336.97;318.00;;;13.50;99.90;;;;;;6226255;23;20405;-90
2021/09/14 06:17:09;;;;;;;335.93;316.93;;;13.70;99.90;;;;;;6216655;23;20785;-82
2021/09/14 06:19:36;;;;;;;313.50;295.77;;;13.70;99.90;;;;;;6216336;23;20483;-89
2021/09/14 06:22:06;;;;;;;285.20;269.13;;;13.90;99.90;;;;;;6216796;23;20473;-90
2021/09/14 06:24:33;;;;;;;262.87;248.67;;;14.00;99.90;;;;;;6226662;23;20412;-89
2021/09/14 06:27:02;;;;;;;257.10;243.27;;;14.20;99.90;;;;;;6226079;23;20974;-86
2021/09/14 06:29:31;;;;;;;241.33;228.37;;;14.20;99.90;;;;;;6226084;23;20440;-86
2021/09/14 06:31:58;;;;;;;216.53;204.33;;;14.30;99.90;;;;;;6226566;23;20404;-89
2021/09/14 06:34:25;;;;;;;187.27;176.63;;;14.40;99.90;;;;;;6226678;23;20412;-88
2021/09/14 06:36:52;;;;;;;155.03;146.73;;;14.60;99.90;;;;;;6232257;23;20430;-91
2021/09/14 06:39:19;;;;;;;140.87;133.70;;;14.50;99.90;;;;;;6226739;23;20400;-94
2021/09/14 06:41:46;;;;;;;115.77;109.37;;;14.60;99.90;;;;;;6229573;23;20435;-94
2021/09/14 06:44:14;;;;;;;110.53;104.23;;;14.80;99.90;;;;;;6232866;23;20412;-94
2021/09/14 06:46:41;;;;;;;97.67;92.33;;;14.90;99.90;;;;;;6217193;23;20406;-94
2021/09/14 06:49:09;;;;;;;81.73;77.07;;;15.00;99.90;;;;;;6226988;23;20416;-95
2021/09/14 06:51:36;;;;;;;61.23;57.00;;;15.10;99.90;;;;;;6227268;23;20495;-92
2021/09/14 06:54:03;;;;;;;57.73;54.07;;;15.10;99.90;;;;;;6216716;23;20881;-91
2021/09/14 06:56:31;;;;;;;55.60;51.73;;;15.20;99.90;;;;;;6226850;23;20465;-90
2021/09/14 06:58:58;;;;;;;61.37;57.70;;;15.30;99.90;;;;;;6226830;23;20900;-94
2021/09/14 07:01:27;;;;;;;59.93;56.07;;;15.50;99.90;;;;;;6217724;23;20803;-92
2021/09/14 07:03:54;;;;;;;49.17;45.87;;;15.50;99.90;;;;;;6226874;23;20446;-94
2021/09/14 07:06:21;;;;;;;43.40;40.17;;;15.70;99.90;;;;;;6226829;23;20406;-93
2021/09/14 07:08:50;;;;;;;36.83;34.10;;;15.80;99.90;;;;;;6226129;23;20432;-93
2021/09/14 07:11:19;;;;;;;32.30;29.20;;;15.80;99.90;;;;;;6225487;23;20405;-90
2021/09/14 07:13:48;;;;;;;30.90;27.90;;;16.00;99.90;;;;;;6226508;23;20436;-92
2021/09/14 07:16:15;;;;;;;28.90;25.93;;;16.10;99.90;;;;;;6216152;23;20429;-89
2021/09/14 07:18:43;;;;;;;26.10;22.07;;;16.00;99.90;;;;;;6226975;23;20426;-82
2021/09/14 07:21:10;;;;;;;23.20;21.03;;;16.00;99.90;;;;;;6218378;23;20397;-88
2021/09/14 07:23:37;;;;;;;21.27;19.17;;;16.00;99.90;;;;;;6229877;23;20474;-95
2021/09/14 07:26:04;;;;;;;22.20;20.20;;;16.00;99.90;;;;;;6220898;23;20469;-91
2021/09/14 07:28:31;;;;;;;21.67;19.23;;;16.00;99.90;;;;;;6219161;23;20464;-94
2021/09/14 07:30:58;;;;;;;22.70;20.27;;;16.00;99.90;;;;;;6229317;23;20411;-94
2021/09/14 07:33:25;;;;;;;25.20;21.07;;;16.00;99.90;;;;;;6222931;23;20793;-93
2021/09/14 07:35:55;;;;;;;25.20;22.70;;;16.00;99.90;;;;;;6225682;23;20415;-94
2021/09/14 07:38:22;;;;;;;23.13;20.83;;;16.00;99.90;;;;;;6214976;23;20533;-85
2021/09/14 07:40:51;;;;;;;24.87;22.60;;;16.10;99.90;;;;;;6213660;23;20417;-93
2021/09/14 07:43:20;;;;;;;26.90;24.40;;;16.10;99.90;;;;;;6224372;23;20449;-92
2021/09/14 07:45:47;;;;;;;26.60;23.97;;;16.30;99.90;;;;;;6215289;23;20408;-92
2021/09/14 07:48:14;;;;;;;27.33;23.60;;;16.40;99.90;;;;;;6224931;23;20802;-86
2021/09/14 07:50:41;;;;;;;25.53;20.73;;;16.50;99.90;;;;;;6225838;23;20497;-85
2021/09/14 07:53:09;;;;;;;24.53;21.77;;;16.70;99.90;;;;;;6224928;23;20734;-91
2021/09/14 07:55:37;;;;;;;23.97;18.70;;;16.70;99.90;;;;;;6223231;23;20412;-91
2021/09/14 07:58:05;;;;;;;24.13;18.40;;;16.90;99.90;;;;;;6225152;23;20436;-89
2021/09/14 08:00:33;;;;;;;25.30;15.70;;;17.20;99.90;;;;;;6224485;23;20486;-90
2021/09/14 08:03:00;;;;;;;17.23;14.80;;;17.30;99.90;;;;;;6224546;23;20441;-91
2021/09/14 08:05:29;;;;;;;15.50;13.23;;;17.60;99.60;;;;;;6224094;23;20488;-92
2021/09/14 08:07:56;;;;;;;17.87;14.60;;;17.90;99.20;;;;;;6213229;23;20414;-93
2021/09/14 08:10:27;;;;;;;17.30;13.63;;;18.10;97.10;;;;;;6222966;23;20446;-93
2021/09/14 08:12:56;;;;;;;19.10;12.57;;;18.30;94.40;;;;;;6225824;23;20437;-92
2021/09/14 08:15:32;;;;;;;15.10;12.20;;;18.60;93.40;;;;;;6226220;23;20444;-93
2021/09/14 08:18:13;;;;;;;12.90;11.10;;;18.90;91.20;;;;;;6224117;23;20918;-92
2021/09/14 08:21:00;;;;;;;16.97;11.93;;;19.20;88.50;;;;;;6226635;23;20879;-92
2021/09/14 08:23:34;;;;;;;14.57;9.83;;;19.40;81.20;;;;;;6226752;23;20432;-93
2021/09/14 08:26:06;;;;;;;13.13;9.60;;;19.60;76.20;;;;;;6225907;23;20775;-93
2021/09/14 08:28:39;;;;;;;12.40;9.90;;;19.90;71.90;;;;;;6227240;23;20929;-90
2021/09/14 08:31:13;;;;;;;10.77;9.07;;;20.30;71.80;;;;;;6226321;23;20727;-94
2021/09/14 08:33:41;;;;;;;12.17;7.60;;;20.80;70.80;;;;;;6226531;23;20416;-93
2021/09/14 08:36:14;;;;;;;9.40;7.73;;;21.10;65.10;;;;;;6227084;23;20411;-92
2021/09/14 08:38:47;;;;;;;9.20;7.90;;;21.10;60.60;;;;;;6226212;23;20955;-93
2021/09/14 08:41:32;;;;;;;11.67;7.70;;;21.30;54.40;;;;;;6225720;23;20426;-92
2021/09/14 08:44:03;;;;;;;13.60;7.37;;;21.60;54.20;;;;;;6226758;23;20442;-93
2021/09/14 08:46:35;;;;;;;10.20;7.97;;;21.90;50.70;;;;;;6216601;23;20403;-91
2021/09/14 08:49:19;;;;;;;11.33;6.70;;;22.10;50.20;;;;;;6226707;23;20391;-91
2021/09/14 08:51:55;;;;;;;14.50;7.50;;;22.20;47.20;;;;;;6195500;23;20411;-90
2021/09/14 08:54:29;;;;;;;12.03;7.40;;;22.60;46.10;;;;;;6224959;23;20525;-88
2021/09/14 08:57:32;;;;;;;;;;;;;;;;;;;;;
2021/09/14 09:00:44;;;;;;;;;;;;;;;;;;;;;
2021/09/14 09:03:27;;;;;;;13.77;6.47;;;23.40;40.00;;;;;;6228352;23;20455;-88
2021/09/14 09:06:24;;;;;;;15.10;7.33;;;23.90;37.30;;;;;;6227629;23;20419;-88
2021/09/14 09:09:32;;;;;;;;;;;;;;;;;;;;;
2021/09/14 09:35:06;;;;;;;8.43;5.37;;;26.10;26.70;;;;;;6037572;23;20413;-90
2021/09/14 11:10:20;;;;;;;9.27;5.40;;;28.90;11.50;;;;;;5935494;24;20815;-92
2021/09/14 11:12:51;;;;;;;8.90;5.50;;;29.70;7.60;;;;;;5969733;23;20408;-78
2021/09/14 11:15:19;;;;;;;9.27;4.50;;;30.00;6.50;;;;;;6141703;23;20426;-82
2021/09/14 11:17:49;;;;;;;9.73;5.07;;;30.80;4.50;;;;;;6155945;23;20457;-81
2021/09/14 11:20:18;;;;;;;7.37;5.57;;;31.00;3.50;;;;;;6165865;23;21001;-82
2021/09/14 11:22:46;;;;;;;8.40;5.40;;;31.00;4.00;;;;;;6165109;23;20861;-80
2021/09/14 11:25:17;;;;;;;7.20;4.97;;;29.60;4.20;;;;;;6164200;23;20934;-87
2021/09/14 11:27:54;;;;;;;11.43;5.53;;;29.90;6.00;;;;;;6156698;23;20419;-88
2021/09/14 11:30:23;;;;;;;8.83;4.70;;;30.80;4.10;;;;;;6158159;23;20424;-87
2021/09/14 11:32:50;;;;;;;9.33;4.50;;;30.60;1.60;;;;;;6168878;23;20412;-85
2021/09/14 11:35:18;;;;;;;8.27;4.83;;;31.30;1.00;;;;;;6168294;23;20431;-86
2021/09/14 11:37:45;;;;;;;7.77;4.80;;;30.80;1.00;;;;;;6157801;23;20410;-83
2021/09/14 11:40:18;;;;;;;6.83;4.70;;;30.10;2.80;;;;;;6154878;23;20761;-85
2021/09/14 11:42:53;;;;;;;8.80;5.10;;;31.00;1.20;;;;;;6165882;23;20468;-84
2021/09/14 11:45:25;;;;;;;7.87;4.27;;;31.70;1.00;;;;;;6155718;23;20408;-86
2021/09/14 11:47:52;;;;;;;7.60;4.30;;;32.30;1.00;;;;;;6155942;23;20406;-85
2021/09/14 11:50:25;;;;;;;11.70;4.60;;;33.10;1.00;;;;;;6165424;23;20445;-85
2021/09/14 11:53:05;;;;;;;5.77;4.13;;;32.70;1.00;;;;;;6165712;23;20422;-85
2021/09/14 11:55:46;;;;;;;7.27;4.53;;;32.60;1.00;;;;;;6164476;23;20402;-87
2021/09/14 11:58:14;;;;;;;9.17;4.30;;;31.90;1.00;;;;;;6165769;23;20406;-86
2021/09/14 12:01:09;;;;;;;8.90;4.43;;;30.80;1.00;;;;;;6155878;23;20398;-87
2021/09/14 12:04:03;;;;;;;7.40;5.00;;;30.70;1.80;;;;;;6155037;23;20473;-86
2021/09/14 12:06:44;;;;;;;7.57;4.87;;;30.10;3.10;;;;;;6185629;23;20948;-88
2021/09/14 12:09:21;;;;;;;6.90;4.43;;;29.70;5.20;;;;;;6195183;23;20528;-86
2021/09/14 12:11:59;;;;;;;8.43;5.10;;;29.40;5.90;;;;;;6194869;23;20416;-80
2021/09/14 12:14:27;;;;;;;6.80;5.00;;;29.20;6.80;;;;;;6185568;23;20487;-82
2021/09/14 12:16:59;;;;;;;7.43;4.63;;;28.80;6.20;;;;;;6185499;23;20432;-81
2021/09/14 12:19:26;;;;;;;11.17;4.90;;;28.40;7.60;;;;;;6185551;23;20413;-81
2021/09/14 12:21:53;;;;;;;6.40;4.93;;;27.80;9.70;;;;;;6185179;23;20452;-82
2021/09/14 12:24:20;;;;;;;10.40;5.23;;;27.70;11.30;;;;;;6183883;23;20440;-80
2021/09/14 12:26:50;;;;;;;8.07;5.03;;;27.70;12.60;;;;;;6182118;23;20492;-81
2021/09/14 12:29:19;;;;;;;7.20;5.00;;;27.60;12.30;;;;;;6182934;23;20376;-80
2021/09/14 12:31:46;;;;;;;8.90;4.37;;;27.90;13.10;;;;;;6183991;23;20460;-80
2021/09/14 12:34:16;;;;;;;10.23;4.70;;;27.80;12.70;;;;;;6183591;23;20488;-82
2021/09/14 12:36:47;;;;;;;6.50;4.63;;;27.40;12.70;;;;;;6183789;23;20398;-81
2021/09/14 12:39:14;;;;;;;10.63;5.17;;;27.40;12.80;;;;;;6193076;23;20415;-80
2021/09/14 12:41:41;;;;;;;7.30;5.70;;;27.30;14.60;;;;;;6192902;23;20697;-81
2021/09/14 12:44:08;;;;;;;10.20;4.63;;;27.40;12.70;;;;;;6193750;23;20470;-80
2021/09/14 12:46:35;;;;;;;6.50;4.80;;;27.30;13.50;;;;;;6183380;23;21042;-81
2021/09/14 12:49:03;;;;;;;11.07;5.00;;;26.80;14.30;;;;;;6183575;23;20511;-81
2021/09/14 12:51:31;;;;;;;11.60;4.57;;;26.90;15.10;;;;;;6183753;23;20463;-80
2021/09/14 12:53:58;;;;;;;9.97;5.23;;;26.90;16.10;;;;;;6192592;23;20462;-82
2021/09/14 12:56:25;;;;;;;10.87;4.60;;;27.10;16.90;;;;;;6182460;23;20515;-81
2021/09/14 12:58:52;;;;;;;14.00;5.00;;;27.40;17.10;;;;;;6186701;23;20443;-81
2021/09/14 13:01:24;;;;;;;7.50;4.43;;;27.50;14.90;;;;;;6187186;23;20496;-86
2021/09/14 13:03:50;;;;;;;14.20;4.57;;;27.60;16.00;;;;;;6187082;23;20393;-87
2021/09/14 13:06:17;;;;;;;11.83;4.70;;;27.80;15.60;;;;;;6196508;23;20449;-90
2021/09/14 13:08:46;;;;;;;7.17;5.10;;;28.00;15.00;;;;;;6187052;23;20401;-85
2021/09/14 13:11:17;;;;;;;6.50;4.13;;;28.10;13.20;;;;;;6185875;23;20436;-85
2021/09/14 13:16:39;;;;;;;7.60;5.37;;;29.00;10.30;;;;;;6196828;23;20923;-88
2021/09/14 13:19:06;;;;;;;7.37;4.37;;;30.00;8.40;;;;;;6196427;23;20845;-85
2021/09/14 13:21:33;;;;;;;6.73;4.87;;;29.80;7.80;;;;;;6186519;23;20492;-84
2021/09/14 13:24:04;;;;;;;8.30;4.80;;;29.90;6.60;;;;;;6186753;23;20508;-85
2021/09/14 13:26:31;;;;;;;9.30;4.90;;;29.60;7.60;;;;;;6195389;23;20428;-84
2021/09/14 13:28:58;;;;;;;7.23;4.40;;;29.40;9.60;;;;;;6186762;23;20401;-83
2021/09/14 13:31:26;;;;;;;9.13;4.90;;;28.80;10.20;;;;;;6186695;23;20823;-85
2021/09/14 13:33:55;;;;;;;9.67;5.23;;;28.50;11.30;;;;;;6196917;23;20889;-91
2021/09/14 13:36:30;;;;;;;8.87;4.97;;;28.10;11.90;;;;;;6187591;23;20476;-87
2021/09/14 13:38:57;;;;;;;7.60;4.43;;;27.80;14.70;;;;;;6196853;23;20439;-86
2021/09/14 13:41:29;;;;;;;6.90;4.87;;;27.30;14.10;;;;;;6185859;23;20401;-89
2021/09/14 13:44:00;;;;;;;6.43;4.30;;;27.10;16.90;;;;;;6196445;23;20428;-88
2021/09/14 13:46:26;;;;;;;7.73;4.67;;;26.90;16.80;;;;;;6196746;23;20405;-88
2021/09/14 13:48:54;;;;;;;7.60;4.67;;;26.70;16.70;;;;;;6196615;23;20463;-90
2021/09/14 13:51:24;;;;;;;7.17;4.77;;;26.50;17.50;;;;;;6186797;23;20401;-91
2021/09/14 13:53:53;;;;;;;8.90;5.10;;;26.40;18.30;;;;;;6196709;23;20408;-91
2021/09/14 13:56:22;;;;;;;8.57;4.80;;;26.10;19.90;;;;;;6195365;23;20467;-92
2021/09/14 13:58:51;;;;;;;10.13;4.73;;;26.00;19.90;;;;;;6196100;23;20500;-88
2021/09/14 14:01:22;;;;;;;7.90;5.07;;;25.70;20.00;;;;;;6186618;23;20393;-86
2021/09/14 14:03:53;;;;;;;12.57;5.97;;;25.60;21.80;;;;;;6186327;23;20436;-88
2021/09/14 14:06:20;;;;;;;8.10;4.53;;;25.50;22.50;;;;;;6196977;23;20498;-90
2021/09/14 14:08:47;;;;;;;8.17;5.30;;;25.40;23.50;;;;;;6186593;23;20498;-91
2021/09/14 14:11:14;;;;;;;9.97;5.07;;;25.30;23.40;;;;;;6184781;23;20444;-92
2021/09/14 14:13:43;;;;;;;8.70;5.43;;;25.30;23.50;;;;;;6186544;23;20479;-91
2021/09/14 14:16:12;;;;;;;8.40;4.77;;;25.60;23.90;;;;;;6196113;23;20412;-91
2021/09/14 14:18:45;;;;;;;9.70;5.20;;;25.70;23.70;;;;;;6195968;23;20413;-91
2021/09/14 14:21:14;;;;;;;6.67;4.60;;;26.00;22.90;;;;;;6186555;23;20409;-92
2021/09/14 14:23:50;;;;;;;6.50;4.50;;;26.10;22.90;;;;;;6195873;23;20916;-91
2021/09/14 14:26:17;;;;;;;8.50;4.40;;;26.20;22.30;;;;;;6194628;23;21021;-90
2021/09/14 14:28:46;;;;;;;9.50;5.00;;;26.00;22.20;;;;;;6196437;23;20416;-90
2021/09/14 14:31:15;;;;;;;7.10;4.63;;;26.20;23.40;;;;;;6196269;23;20774;-91
2021/09/14 14:33:43;;;;;;;8.13;4.60;;;26.00;23.80;;;;;;6185901;23;20437;-92
2021/09/14 14:36:20;;;;;;;7.53;5.07;;;25.90;23.80;;;;;;6196270;23;20401;-92
2021/09/14 14:38:49;;;;;;;7.63;4.50;;;25.70;24.70;;;;;;6186302;23;20393;-91
2021/09/14 14:41:19;;;;;;;11.60;4.97;;;25.60;25.40;;;;;;6184699;23;20420;-92
2021/09/14 14:43:48;;;;;;;6.40;4.70;;;25.40;25.70;;;;;;6185837;23;20964;-89
2021/09/14 14:46:19;;;;;;;8.43;4.60;;;25.20;27.20;;;;;;6195680;23;20444;-90
2021/09/14 14:48:48;;;;;;;8.23;4.73;;;25.10;27.60;;;;;;6185410;23;20951;-91
2021/09/14 14:51:17;;;;;;;8.77;4.87;;;24.90;28.70;;;;;;6196263;23;20405;-89
2021/09/14 14:53:44;;;;;;;10.33;4.53;;;24.80;29.80;;;;;;6186433;23;20409;-87
2021/09/14 14:56:11;;;;;;;14.93;4.90;;;24.60;29.10;;;;;;6194329;23;20409;-85
2021/09/14 14:58:41;;;;;;;7.00;4.80;;;24.50;30.20;;;;;;6196115;23;20417;-90
2021/09/14 15:01:08;;;;;;;8.43;5.10;;;24.30;31.60;;;;;;6196299;23;20487;-91
2021/09/14 15:03:36;;;;;;;7.53;4.90;;;24.20;32.80;;;;;;6196171;23;20490;-92
2021/09/14 15:06:06;;;;;;;7.23;4.50;;;24.00;32.00;;;;;;6185867;23;20456;-92
2021/09/14 15:08:33;;;;;;;7.00;4.50;;;24.00;32.30;;;;;;6196972;23;20426;-92
2021/09/14 15:11:03;;;;;;;11.80;5.00;;;24.00;33.30;;;;;;6194460;23;20446;-93
2021/09/14 15:13:30;;;;;;;9.73;4.73;;;24.00;33.90;;;;;;6195577;23;20416;-91
2021/09/14 15:15:57;;;;;;;10.47;4.70;;;24.00;34.10;;;;;;6196397;23;20412;-89
2021/09/14 15:18:26;;;;;;;7.43;4.73;;;24.00;34.10;;;;;;6197028;23;20409;-90
2021/09/14 15:20:55;;;;;;;8.23;5.83;;;24.00;34.40;;;;;;6187067;23;20456;-90
2021/09/14 15:23:24;;;;;;;7.97;5.40;;;24.00;34.00;;;;;;6196456;23;20405;-89
2021/09/14 15:25:52;;;;;;;13.80;5.23;;;23.90;34.30;;;;;;6196656;23;20448;-91
2021/09/14 15:28:21;;;;;;;8.10;5.47;;;23.90;34.30;;;;;;6186194;23;20460;-91
2021/09/14 15:30:50;;;;;;;11.40;4.87;;;23.90;33.80;;;;;;6195947;23;20408;-80
2021/09/14 15:33:18;;;;;;;7.40;4.70;;;23.80;33.70;;;;;;6185282;23;20486;-83
2021/09/14 15:35:47;;;;;;;6.87;4.73;;;23.90;34.60;;;;;;6195412;23;20785;-80
2021/09/14 15:38:21;;;;;;;7.47;4.43;;;24.00;35.90;;;;;;6195819;23;20412;-83
2021/09/14 15:40:49;;;;;;;9.90;4.50;;;24.00;35.70;;;;;;6184049;23;20408;-82
2021/09/14 15:43:16;;;;;;;8.23;4.63;;;24.00;35.10;;;;;;6185819;23;20403;-84
2021/09/14 15:45:45;;;;;;;10.50;5.40;;;24.00;36.30;;;;;;6195158;23;20968;-83
2021/09/14 15:48:12;;;;;;;10.30;5.20;;;24.00;37.00;;;;;;6185604;23;20457;-81
2021/09/14 15:50:39;;;;;;;9.93;5.37;;;23.80;37.00;;;;;;6185691;23;20513;-79
2021/09/14 15:53:06;;;;;;;8.40;4.97;;;23.80;37.60;;;;;;6185696;23;20407;-82
2021/09/14 15:55:35;;;;;;;14.93;5.33;;;23.90;36.30;;;;;;6184183;23;20424;-82
2021/09/14 15:58:03;;;;;;;17.13;5.37;;;24.00;36.10;;;;;;6185708;23;20451;-80
2021/09/14 16:00:30;;;;;;;12.60;4.53;;;24.00;35.40;;;;;;6185707;23;20398;-83
2021/09/14 16:02:57;;;;;;;14.97;4.80;;;24.00;35.90;;;;;;6185315;23;20443;-82
2021/09/14 16:05:24;;;;;;;14.63;5.77;;;24.00;36.00;;;;;;6195053;23;20502;-80
2021/09/14 16:07:53;;;;;;;9.93;5.20;;;23.80;35.90;;;;;;6185558;23;20401;-82
2021/09/14 16:10:20;;;;;;;10.17;5.27;;;23.80;36.30;;;;;;6184121;23;20414;-80
2021/09/14 16:12:48;;;;;;;8.37;4.97;;;23.70;37.40;;;;;;6185608;23;20498;-83
2021/09/14 16:15:15;;;;;;;7.73;5.10;;;23.60;37.90;;;;;;6185242;23;20491;-81
2021/09/14 16:17:42;;;;;;;10.50;5.43;;;23.70;38.00;;;;;;6185275;23;20408;-79
2021/09/14 16:20:11;;;;;;;11.30;4.83;;;23.70;38.30;;;;;;6195301;23;20892;-80
2021/09/14 16:22:38;;;;;;;9.30;5.13;;;23.70;38.00;;;;;;6185503;23;20489;-82
2021/09/14 16:25:07;;;;;;;12.80;5.20;;;23.70;38.70;;;;;;6183842;23;20428;-82
2021/09/14 16:27:34;;;;;;;7.37;5.10;;;23.80;38.10;;;;;;6185436;23;20921;-81
2021/09/14 16:30:04;;;;;;;10.30;5.67;;;23.80;38.90;;;;;;6185067;23;20890;-83
2021/09/14 16:32:31;;;;;;;13.35;5.80;;;23.80;38.90;;;;;;6195393;23;20779;-82
2021/09/14 16:34:58;;;;;;;10.53;5.13;;;23.70;38.70;;;;;;6187281;23;20167;-84
2021/09/14 16:37:25;;;;;;;7.83;4.70;;;23.60;38.70;;;;;;6187548;23;20465;-85
2021/09/14 16:39:52;;;;;;;8.77;5.73;;;23.50;38.80;;;;;;6185944;23;20494;-82
2021/09/14 16:42:19;;;;;;;8.80;4.50;;;23.40;40.70;;;;;;6197189;23;20494;-82
2021/09/14 16:44:47;;;;;;;10.00;5.50;;;23.30;42.40;;;;;;6196659;23;20495;-85
2021/09/14 16:47:16;;;;;;;9.73;4.60;;;23.20;43.20;;;;;;6196854;23;20796;-82
2021/09/14 16:49:45;;;;;;;9.37;5.37;;;23.20;44.40;;;;;;6186876;23;20399;-82
2021/09/14 16:52:13;;;;;;;8.10;5.70;;;23.00;45.70;;;;;;6187015;23;20400;-81
2021/09/14 16:54:40;;;;;;;9.60;6.73;;;22.90;46.80;;;;;;6185741;23;20507;-78
2021/09/14 16:57:11;;;;;;;15.50;6.00;;;22.80;49.00;;;;;;6187024;23;20404;-81
2021/09/14 16:59:38;;;;;;;10.53;5.83;;;22.70;48.50;;;;;;6187192;23;20447;-83
2021/09/14 17:02:06;;;;;;;12.90;6.13;;;22.70;48.70;;;;;;6186994;23;20441;-82
2021/09/14 17:04:38;;;;;;;14.00;5.90;;;22.60;49.30;;;;;;6196703;23;20458;-82
2021/09/14 17:07:07;;;;;;;10.93;6.00;;;22.50;49.60;;;;;;6196490;23;20446;-82
2021/09/14 17:09:34;;;;;;;9.37;5.60;;;22.50;49.80;;;;;;6185603;23;20409;-85
2021/09/14 17:12:01;;;;;;;9.13;5.47;;;22.40;49.70;;;;;;6186574;23;20411;-83
2021/09/14 17:14:28;;;;;;;15.23;6.20;;;22.30;51.00;;;;;;6186878;23;20403;-82
2021/09/14 17:16:57;;;;;;;10.27;6.27;;;22.20;52.20;;;;;;6186936;23;20414;-90
2021/09/14 17:19:24;;;;;;;11.70;6.90;;;22.20;54.10;;;;;;6186972;23;20781;-90
2021/09/14 17:21:52;;;;;;;9.93;6.70;;;22.00;55.10;;;;;;6196994;23;20455;-90
2021/09/14 17:24:21;;;;;;;11.90;7.00;;;22.00;55.70;;;;;;6186559;23;20434;-87
2021/09/14 17:26:48;;;;;;;16.10;7.40;;;22.00;56.90;;;;;;6144099;23;20450;-90
2021/09/14 17:29:15;;;;;;;10.70;6.50;;;21.90;57.80;;;;;;6187273;23;20789;-90
2021/09/14 17:31:46;;;;;;;14.57;6.47;;;21.90;59.00;;;;;;6197056;23;20404;-90
2021/09/14 17:34:23;;;;;;;14.57;7.73;;;21.70;60.30;;;;;;6119796;23;20410;-88
2021/09/14 17:37:07;;;;;;;10.10;6.80;;;21.70;60.50;;;;;;6186815;23;20414;-86
2021/09/14 17:39:34;;;;;;;16.53;7.60;;;21.60;62.00;;;;;;6194868;23;20937;-87
2021/09/14 17:42:07;;;;;;;12.27;8.33;;;21.60;61.90;;;;;;6196529;23;20466;-88
2021/09/14 17:44:35;;;;;;;12.83;7.73;;;21.60;63.60;;;;;;6186428;23;20471;-89
2021/09/14 17:47:04;;;;;;;13.33;7.30;;;21.60;61.90;;;;;;6186408;23;20500;-90
2021/09/14 17:49:31;;;;;;;12.83;8.80;;;21.60;62.00;;;;;;6196416;23;20414;-87
2021/09/14 17:52:00;;;;;;;14.67;7.50;;;21.50;61.60;;;;;;6196209;23;20947;-88
2021/09/14 17:54:30;;;;;;;14.10;8.77;;;21.50;63.20;;;;;;6195146;23;20451;-89
2021/09/14 17:56:57;;;;;;;11.80;9.70;;;21.50;63.30;;;;;;6196651;23;20423;-89
2021/09/14 17:59:24;;;;;;;16.33;9.40;;;21.50;63.50;;;;;;6186240;23;20495;-88
2021/09/14 18:01:56;;;;;;;13.50;10.53;;;21.50;63.60;;;;;;6186545;23;20410;-86
2021/09/14 18:04:23;;;;;;;15.17;10.07;;;21.40;65.60;;;;;;6197128;23;20464;-90
2021/09/14 18:06:59;;;;;;;12.67;8.53;;;21.40;66.10;;;;;;6196463;23;20758;-86
2021/09/14 18:09:26;;;;;;;15.70;9.10;;;21.30;67.50;;;;;;6195391;23;20408;-91
2021/09/14 18:11:53;;;;;;;15.40;8.93;;;21.30;68.50;;;;;;6196114;23;20483;-89
2021/09/14 18:14:20;;;;;;;10.80;7.83;;;21.30;70.00;;;;;;6196628;23;20447;-91
2021/09/14 18:16:47;;;;;;;9.17;7.33;;;21.10;69.80;;;;;;6196384;23;20403;-87
2021/09/14 18:19:14;;;;;;;11.80;8.30;;;21.10;69.30;;;;;;6186872;23;20433;-91
2021/09/14 18:21:51;;;;;;;12.30;7.57;;;21.10;69.10;;;;;;6194043;23;20436;-88